createdAt,value
2022-10-30T00:01:20.092Z,22.23
2022-10-30T00:04:21.285Z,25.80
2022-10-30T00:07:22.019Z,26.83
2022-10-30T00:10:23.259Z,22.95
2022-10-30T00:13:24.239Z,24.15
2022-10-30T00:16:25.289Z,24.42
2022-10-30T00:19:26.309Z,22.42
2022-10-30T00:22:27.283Z,20.75
2022-10-30T00:25:28.041Z,21.63
2022-10-30T00:28:29.268Z,18.48
2022-10-30T00:31:31.326Z,20.73
2022-10-30T00:34:32.317Z,21.80
2022-10-30T00:37:33.164Z,23.17
2022-10-30T00:40:33.923Z,21.08
2022-10-30T00:43:40.437Z,22.88
2022-10-30T00:46:43.130Z,23.98
2022-10-30T00:50:08.726Z,24.13
2022-10-30T00:53:17.679Z,25.35
2022-10-30T00:56:22.343Z,26.45
2022-10-30T00:59:33.068Z,34.72
2022-10-30T01:02:34.902Z,32.35
2022-10-30T01:05:36.793Z,29.02
2022-10-30T01:08:39.195Z,28.73
2022-10-30T01:11:40.524Z,27.83
2022-10-30T01:14:49.361Z,27.48
2022-10-30T01:18:25.277Z,26.48
2022-10-30T01:21:28.983Z,24.55
2022-10-30T01:25:12.172Z,43.83
2022-10-30T01:28:28.552Z,41.70
2022-10-30T01:32:04.510Z,32.50
2022-10-30T01:35:22.269Z,23.17
2022-10-30T01:38:48.164Z,24.15
2022-10-30T01:41:49.107Z,26.35
2022-10-30T01:44:50.155Z,26.73
2022-10-30T01:48:23.805Z,26.88
2022-10-30T01:55:00.585Z,24.58
2022-10-30T01:58:27.724Z,24.35
2022-10-30T02:01:35.788Z,29.55
2022-10-30T02:04:38.274Z,25.65
2022-10-30T02:07:39.427Z,21.10
2022-10-30T02:10:46.562Z,21.88
2022-10-30T02:13:48.691Z,25.48
2022-10-30T02:16:53.192Z,22.67
2022-10-30T02:19:54.674Z,21.95
2022-10-30T02:22:59.308Z,25.52
2022-10-30T02:26:05.677Z,26.83
2022-10-30T02:29:06.318Z,28.15
2022-10-30T02:32:08.308Z,24.15
2022-10-30T02:35:09.947Z,25.17
2022-10-30T02:38:10.988Z,30.77
2022-10-30T02:41:12.784Z,29.27
2022-10-30T02:44:14.092Z,30.27
2022-10-30T02:47:15.341Z,32.78
2022-10-30T02:50:16.436Z,34.63
2022-10-30T02:53:17.565Z,36.33
2022-10-30T02:56:19.633Z,35.72
2022-10-30T02:59:20.814Z,38.53
2022-10-30T03:02:23.731Z,39.05
2022-10-30T03:05:25.968Z,38.90
2022-10-30T03:08:26.777Z,40.30
2022-10-30T03:11:27.856Z,37.92
2022-10-30T03:14:29.723Z,32.55
2022-10-30T03:17:30.718Z,29.67
2022-10-30T03:20:31.843Z,29.50
2022-10-30T03:23:33.931Z,32.45
2022-10-30T03:26:36.029Z,32.72
2022-10-30T03:29:39.823Z,26.10
2022-10-30T03:32:40.522Z,31.20
2022-10-30T03:35:43.738Z,31.83
2022-10-30T03:38:44.883Z,34.75
2022-10-30T03:41:49.620Z,38.13
2022-10-30T03:44:51.895Z,42.90
2022-10-30T03:47:53.408Z,39.25
2022-10-30T03:50:57.244Z,39.85
2022-10-30T03:53:58.147Z,36.67
2022-10-30T03:57:00.071Z,37.55
2022-10-30T04:00:07.037Z,39.35
2022-10-30T04:03:23.359Z,42.38
2022-10-30T04:06:24.319Z,36.03
2022-10-30T04:09:25.551Z,36.20
2022-10-30T04:12:27.338Z,35.08
2022-10-30T04:15:28.833Z,35.53
2022-10-30T04:18:29.620Z,54.17
2022-10-30T04:21:31.520Z,52.90
2022-10-30T04:24:32.519Z,58.00
2022-10-30T04:27:41.598Z,58.90
2022-10-30T04:30:42.551Z,60.75
2022-10-30T04:33:43.775Z,56.00
2022-10-30T04:36:44.550Z,48.53
2022-10-30T04:39:48.803Z,61.22
2022-10-30T04:42:55.714Z,50.85
2022-10-30T04:45:56.700Z,55.95
2022-10-30T04:48:57.492Z,50.50
2022-10-30T04:51:58.788Z,55.25
2022-10-30T04:54:59.330Z,46.95
2022-10-30T04:58:03.162Z,49.65
2022-10-30T05:01:08.147Z,53.13
2022-10-30T05:04:10.146Z,47.67
2022-10-30T05:07:13.586Z,51.22
2022-10-30T05:10:15.831Z,45.90
2022-10-30T05:13:16.912Z,45.05
2022-10-30T05:16:17.669Z,39.97
2022-10-30T05:19:18.492Z,39.05
2022-10-30T05:25:28.432Z,29.17
2022-10-30T05:28:32.064Z,33.97
2022-10-30T05:31:33.458Z,32.65
2022-10-30T05:34:36.885Z,33.33
2022-10-30T05:37:38.023Z,38.90
2022-10-30T05:40:39.943Z,48.15
2022-10-30T05:43:41.479Z,52.10
2022-10-30T05:46:42.855Z,44.85
2022-10-30T05:49:57.896Z,37.45
2022-10-30T05:53:04.088Z,38.33
2022-10-30T05:56:05.456Z,33.63
2022-10-30T05:59:08.839Z,32.47
2022-10-30T06:02:09.732Z,29.48
2022-10-30T06:05:10.937Z,29.33
2022-10-30T06:08:12.782Z,31.35
2022-10-30T06:11:13.953Z,45.72
2022-10-30T06:14:17.968Z,40.47
2022-10-30T06:17:22.801Z,25.77
2022-10-30T06:20:35.178Z,23.88
2022-10-30T06:23:59.284Z,30.58
2022-10-30T06:27:07.481Z,25.98
2022-10-30T06:30:08.998Z,25.40
2022-10-30T06:33:10.788Z,27.23
2022-10-30T06:36:15.061Z,32.35
2022-10-30T06:39:16.399Z,29.73
2022-10-30T06:42:30.174Z,44.20
2022-10-30T06:45:43.017Z,44.35
2022-10-30T06:48:44.247Z,41.88
2022-10-30T06:51:46.281Z,37.88
2022-10-30T06:54:47.682Z,41.03
2022-10-30T06:58:06.743Z,33.72
2022-10-30T07:01:25.952Z,30.73
2022-10-30T07:04:47.626Z,27.20
2022-10-30T07:07:48.377Z,26.88
2022-10-30T07:10:49.499Z,35.58
2022-10-30T07:14:01.960Z,37.55
2022-10-30T07:17:22.182Z,26.45
2022-10-30T07:20:32.611Z,25.30
2022-10-30T07:23:33.721Z,24.48
2022-10-30T07:26:53.257Z,22.65
2022-10-30T07:30:09.614Z,23.35
2022-10-30T07:33:35.187Z,22.27
2022-10-30T07:36:49.116Z,22.55
2022-10-30T07:40:15.876Z,22.65
2022-10-30T07:43:22.490Z,21.52
2022-10-30T07:46:55.237Z,21.25
2022-10-30T07:50:19.477Z,19.95
2022-10-30T07:53:20.248Z,21.95
2022-10-30T07:56:22.390Z,19.85
2022-10-30T07:59:26.184Z,18.77
2022-10-30T08:02:33.373Z,18.77
2022-10-30T08:05:57.032Z,17.13
2022-10-30T08:09:18.085Z,16.33
2022-10-30T08:12:21.131Z,15.30
2022-10-30T08:15:22.603Z,15.10
2022-10-30T08:18:23.312Z,14.73
2022-10-30T08:21:24.609Z,15.35
2022-10-30T08:24:33.997Z,15.55
2022-10-30T08:27:35.306Z,15.13
2022-10-30T08:30:39.207Z,16.60
2022-10-30T08:33:42.825Z,17.85
2022-10-30T08:37:01.459Z,16.17
2022-10-30T08:40:03.283Z,17.75
2022-10-30T08:43:16.698Z,18.70
2022-10-30T08:46:18.143Z,16.17
2022-10-30T08:49:19.304Z,15.88
2022-10-30T08:52:26.970Z,14.63
2022-10-30T08:55:31.980Z,14.13
2022-10-30T08:58:35.598Z,12.73
2022-10-30T09:01:37.108Z,13.32
2022-10-30T09:04:53.529Z,10.45
2022-10-30T09:08:13.314Z,8.50
2022-10-30T09:11:36.324Z,8.25
2022-10-30T09:14:37.954Z,7.07
2022-10-30T09:17:42.258Z,8.25
2022-10-30T09:20:43.339Z,6.55
2022-10-30T09:23:44.655Z,7.55
2022-10-30T09:27:04.081Z,8.27
2022-10-30T09:30:11.511Z,6.40
2022-10-30T09:33:17.314Z,7.22
2022-10-30T09:36:38.702Z,7.00
2022-10-30T09:39:40.126Z,7.28
2022-10-30T09:42:51.019Z,5.90
2022-10-30T09:46:31.483Z,6.93
2022-10-30T09:49:43.890Z,7.32
2022-10-30T09:53:33.931Z,7.68
2022-10-30T09:57:15.064Z,7.03
2022-10-30T10:00:22.817Z,7.95
2022-10-30T10:03:58.755Z,7.63
2022-10-30T10:07:59.612Z,7.85
2022-10-30T10:11:32.548Z,8.55
2022-10-30T10:14:41.524Z,8.07
2022-10-30T10:17:46.923Z,8.68
2022-10-30T10:20:56.211Z,7.57
2022-10-30T10:24:02.759Z,8.20
2022-10-30T10:27:22.129Z,8.85
2022-10-30T10:30:26.009Z,8.15
2022-10-30T10:33:45.415Z,8.68
2022-10-30T10:37:11.750Z,8.82
2022-10-30T10:40:54.529Z,9.10
2022-10-30T10:44:31.323Z,9.10
2022-10-30T10:50:58.632Z,9.55
2022-10-30T10:54:10.867Z,9.43
2022-10-30T10:57:26.759Z,9.68
2022-10-30T11:00:30.454Z,9.00
2022-10-30T11:04:16.979Z,10.40
2022-10-30T11:07:30.580Z,9.43
2022-10-30T11:10:31.715Z,9.98
2022-10-30T11:13:38.841Z,9.57
2022-10-30T11:17:01.481Z,10.68
2022-10-30T11:20:19.563Z,10.65
2022-10-30T11:23:41.395Z,9.93
2022-10-30T11:26:42.814Z,9.63
2022-10-30T11:29:54.001Z,10.65
2022-10-30T11:32:57.165Z,10.57
2022-10-30T11:36:15.441Z,11.40
2022-10-30T11:39:30.166Z,10.93
2022-10-30T11:42:31.518Z,10.25
2022-10-30T11:45:43.713Z,11.40
2022-10-30T11:48:46.406Z,11.18
2022-10-30T11:51:47.979Z,11.52
2022-10-30T11:54:54.885Z,11.65
2022-10-30T11:57:59.711Z,11.50
2022-10-30T12:01:08.072Z,11.40
2022-10-30T12:04:27.632Z,12.23
2022-10-30T12:07:33.627Z,12.75
2022-10-30T12:10:45.741Z,12.00
2022-10-30T12:13:46.555Z,13.00
2022-10-30T12:16:52.028Z,12.80
2022-10-30T12:19:57.526Z,14.07
2022-10-30T12:22:59.457Z,14.23
2022-10-30T12:26:10.299Z,12.68
2022-10-30T12:29:18.579Z,13.70
2022-10-30T12:32:23.704Z,13.50
2022-10-30T12:35:44.540Z,12.77
2022-10-30T12:38:55.521Z,12.75
2022-10-30T12:42:04.092Z,13.00
2022-10-30T12:45:24.862Z,13.75
2022-10-30T12:48:40.501Z,12.48
2022-10-30T12:52:03.761Z,14.60
2022-10-30T12:55:31.098Z,15.00
2022-10-30T13:02:18.509Z,14.32
2022-10-30T13:09:26.497Z,14.60
2022-10-30T13:12:36.375Z,14.48
2022-10-30T13:15:54.289Z,14.55
2022-10-30T13:19:01.535Z,14.20
2022-10-30T13:22:18.730Z,15.25
2022-10-30T13:25:55.743Z,13.82
2022-10-30T13:29:12.899Z,14.10
2022-10-30T13:35:35.949Z,14.60
2022-10-30T13:38:57.743Z,15.43
2022-10-30T13:42:38.503Z,15.32
2022-10-30T13:46:03.522Z,14.50
2022-10-30T13:49:40.659Z,13.48
2022-10-30T13:55:50.225Z,14.40
2022-10-30T13:59:13.043Z,15.55
2022-10-30T14:02:40.239Z,13.45
2022-10-30T14:06:24.431Z,13.27
2022-10-30T14:09:51.906Z,12.63
2022-10-30T14:12:56.188Z,11.25
2022-10-30T14:16:07.585Z,11.77
2022-10-30T14:19:16.239Z,10.65
2022-10-30T14:22:26.323Z,9.65
2022-10-30T14:25:27.014Z,9.48
2022-10-30T14:28:28.749Z,9.18
2022-10-30T14:31:36.640Z,8.98
2022-10-30T14:34:58.843Z,10.23
2022-10-30T14:38:22.853Z,9.75
2022-10-30T14:41:46.216Z,9.63
2022-10-30T14:44:58.953Z,9.55
2022-10-30T14:48:55.334Z,11.30
2022-10-30T14:52:48.733Z,10.52
2022-10-30T14:55:52.494Z,11.10
2022-10-30T14:59:13.888Z,10.82
2022-10-30T15:02:15.162Z,12.20
2022-10-30T15:06:16.397Z,11.75
2022-10-30T15:09:34.501Z,10.95
2022-10-30T15:13:10.873Z,11.48
2022-10-30T15:16:19.744Z,12.70
2022-10-30T15:19:24.994Z,11.95
2022-10-30T15:22:30.266Z,11.60
2022-10-30T15:25:47.641Z,11.68
2022-10-30T15:28:52.398Z,10.68
2022-10-30T15:32:14.639Z,11.32
2022-10-30T15:35:28.196Z,11.82
2022-10-30T15:38:29.214Z,12.23
2022-10-30T15:41:31.288Z,13.25
2022-10-30T15:44:40.295Z,12.57
2022-10-30T15:47:57.595Z,11.85
2022-10-30T15:51:15.079Z,12.65
2022-10-30T15:54:21.407Z,11.85
2022-10-30T15:58:03.002Z,13.38
2022-10-30T16:01:00.216Z,13.05
2022-10-30T16:04:01.628Z,12.30
2022-10-30T16:07:18.111Z,12.60
2022-10-30T16:10:19.093Z,11.68
2022-10-30T16:13:30.595Z,11.75
2022-10-30T16:16:32.308Z,12.68
2022-10-30T16:19:54.518Z,12.77
2022-10-30T16:22:55.628Z,13.50
2022-10-30T16:25:59.272Z,13.68
2022-10-30T16:29:18.501Z,15.48
2022-10-30T16:32:24.130Z,14.13
2022-10-30T16:35:27.480Z,12.85
2022-10-30T16:38:37.041Z,12.52
2022-10-30T16:41:39.972Z,12.40
2022-10-30T16:44:42.169Z,11.73
2022-10-30T16:47:51.686Z,11.85
2022-10-30T16:50:53.059Z,12.65
2022-10-30T16:53:54.255Z,12.13
2022-10-30T16:57:00.052Z,12.13
2022-10-30T17:00:02.211Z,11.75
2022-10-30T17:03:10.769Z,14.27
2022-10-30T17:06:35.833Z,15.23
2022-10-30T17:09:38.770Z,14.23
2022-10-30T17:12:39.543Z,14.50
2022-10-30T17:15:41.804Z,13.75
2022-10-30T17:18:43.295Z,13.23
2022-10-30T17:21:44.531Z,12.45
2022-10-30T17:24:47.698Z,12.20
2022-10-30T17:27:51.155Z,11.73
2022-10-30T17:30:51.932Z,12.13
2022-10-30T17:34:17.431Z,11.85
2022-10-30T17:37:18.386Z,12.38
2022-10-30T17:40:20.465Z,13.50
2022-10-30T17:43:26.235Z,13.40
2022-10-30T17:46:27.577Z,14.18
2022-10-30T17:49:32.065Z,14.95
2022-10-30T17:52:34.345Z,15.10
2022-10-30T17:55:38.682Z,15.40
2022-10-30T17:58:39.791Z,13.45
2022-10-30T18:01:41.332Z,13.27
2022-10-30T18:04:43.000Z,13.02
2022-10-30T18:07:44.676Z,13.98
2022-10-30T18:10:45.649Z,15.43
2022-10-30T18:13:47.796Z,14.10
2022-10-30T18:16:54.508Z,13.80
2022-10-30T18:19:56.470Z,14.77
2022-10-30T18:22:58.350Z,15.50
2022-10-30T18:25:59.726Z,17.27
2022-10-30T18:29:00.972Z,15.27
2022-10-30T18:32:06.929Z,15.75
2022-10-30T18:35:26.216Z,20.15
2022-10-30T18:38:26.959Z,29.73
2022-10-30T18:41:42.367Z,33.45
2022-10-30T18:44:43.168Z,31.90
2022-10-30T18:47:43.879Z,33.72
2022-10-30T18:50:44.669Z,33.33
2022-10-30T18:53:52.101Z,32.25
2022-10-30T18:56:53.291Z,35.58
2022-10-30T18:59:53.941Z,32.63
2022-10-30T19:03:00.146Z,31.63
2022-10-30T19:06:01.382Z,29.20
2022-10-30T19:09:02.323Z,28.77
2022-10-30T19:12:03.599Z,31.02
2022-10-30T19:15:20.944Z,31.75
2022-10-30T19:18:25.491Z,28.38
2022-10-30T19:21:26.730Z,26.67
2022-10-30T19:24:27.832Z,28.50
2022-10-30T19:27:28.613Z,30.10
2022-10-30T19:30:29.651Z,30.48
2022-10-30T19:33:30.551Z,32.78
2022-10-30T19:36:36.416Z,39.53
2022-10-30T19:39:38.334Z,39.22
2022-10-30T19:42:39.506Z,36.63
2022-10-30T19:45:40.723Z,35.15
2022-10-30T19:48:56.548Z,37.03
2022-10-30T19:51:58.645Z,30.02
2022-10-30T19:54:59.329Z,33.30
2022-10-30T19:58:01.869Z,37.53
2022-10-30T20:01:03.483Z,42.75
2022-10-30T20:04:04.587Z,49.53
2022-10-30T20:07:05.303Z,51.00
2022-10-30T20:10:16.236Z,50.85
2022-10-30T20:13:17.123Z,42.35
2022-10-30T20:16:17.998Z,41.58
2022-10-30T20:19:37.042Z,45.30
2022-10-30T20:22:37.846Z,42.00
2022-10-30T20:25:38.565Z,39.25
2022-10-30T20:28:42.698Z,37.58
2022-10-30T20:31:43.578Z,35.85
2022-10-30T20:34:44.189Z,37.92
2022-10-30T20:38:02.141Z,41.92
2022-10-30T20:41:05.198Z,43.38
2022-10-30T20:44:06.722Z,64.88
2022-10-30T20:47:08.061Z,48.75
2022-10-30T20:50:09.943Z,48.83
2022-10-30T20:53:13.646Z,40.70
2022-10-30T20:56:14.655Z,51.85
2022-10-30T20:59:15.492Z,78.90
2022-10-30T21:02:16.331Z,36.80
2022-10-30T21:05:42.114Z,34.20
2022-10-30T21:08:38.474Z,32.67
2022-10-30T21:11:39.183Z,30.15
2022-10-30T21:14:39.835Z,36.78
2022-10-30T21:17:40.538Z,40.35
2022-10-30T21:20:41.389Z,40.78
2022-10-30T21:23:41.976Z,44.92
2022-10-30T21:26:42.733Z,75.07
2022-10-30T21:29:46.362Z,72.50
2022-10-30T21:32:46.950Z,48.00
2022-10-30T21:35:47.917Z,48.15
2022-10-30T21:38:49.298Z,45.03
2022-10-30T21:41:50.295Z,47.60
2022-10-30T21:44:51.121Z,75.35
2022-10-30T21:47:52.776Z,44.67
2022-10-30T21:50:53.714Z,40.88
2022-10-30T21:53:56.177Z,37.75
2022-10-30T21:56:57.959Z,39.33
2022-10-30T22:00:01.752Z,42.65
2022-10-30T22:03:11.237Z,39.78
2022-10-30T22:06:15.328Z,38.70
2022-10-30T22:09:18.815Z,34.05
2022-10-30T22:12:19.650Z,37.80
2022-10-30T22:15:20.556Z,37.33
2022-10-30T22:18:22.108Z,37.72
2022-10-30T22:21:22.893Z,37.83
2022-10-30T22:24:23.631Z,37.97
2022-10-30T22:27:24.583Z,39.92
2022-10-30T22:30:25.455Z,40.75
2022-10-30T22:33:26.196Z,43.40
2022-10-30T22:36:31.206Z,44.80
2022-10-30T22:39:32.189Z,47.33
2022-10-30T22:42:36.029Z,45.85
2022-10-30T22:45:37.107Z,46.70
2022-10-30T22:48:39.210Z,44.28
2022-10-30T22:51:40.424Z,44.00
2022-10-30T22:54:41.419Z,42.38
2022-10-30T22:57:42.004Z,42.47
2022-10-30T23:00:42.833Z,42.58
2022-10-30T23:03:44.991Z,43.25
2022-10-30T23:06:45.999Z,38.13
2022-10-30T23:09:46.819Z,36.75
2022-10-30T23:12:47.611Z,36.45
2022-10-30T23:15:48.875Z,34.60
2022-10-30T23:18:50.959Z,30.67
2022-10-30T23:21:58.881Z,29.05
2022-10-30T23:24:59.850Z,30.73
2022-10-30T23:28:01.494Z,30.77
2022-10-30T23:31:15.892Z,30.95
2022-10-30T23:34:17.771Z,31.77
2022-10-30T23:37:18.721Z,32.88
2022-10-30T23:40:20.987Z,32.70
2022-10-30T23:43:22.361Z,35.58
2022-10-30T23:46:23.636Z,34.15
2022-10-30T23:49:24.379Z,32.33
2022-10-30T23:52:25.125Z,34.50
2022-10-30T23:55:27.490Z,31.83
2022-10-30T23:58:28.457Z,32.03
